Hauptseite
METAR-TAF:

METAR-TAF

Flughäfen :

RNAS Culdrose

Culdrose, England

Breite: 50-05N, Länge: 005-15W, Höhe: 78 m

Beobachtung

Neuester Wetterbericht von vor 1 Stunde und 10 Minuten, um 00:50 UTC
Wind 9 kt aus Südwest
Temperatur 14°C
Luftfeuchtigkeit 88%
Luftdruck 1009 hPa
Sichtweite 10 km oder mehr

METAR: EGDR 230050Z AUTO 23009KT 9999 // NCD 14/12 Q1009

Zeit: 03:00 (02:00 UTC)


TAF: fehlend

Wetterbeobachtungen und Prognosen von mehr als 4000 Flughäfen (METAR und TAF Bericht).

Die verfügbaren Stationen werden durch gelbe und rote Markierungen auf der Karte dargestellt.

Führen Sie die Maus auf sie, um den Namen der Station zu sehen.

Darauf klicken, um die Beobachtung von Wetterbeobachtungen und Prognosen zu sehen.

Um die Karte zu ändern : klicken Sie auf den grünen Tasten mit einem schwarzen Kreuz Zum Vergrößern, auf den grünen Button mit einem Gedankenstrich zu verkleinern, oder auf die grünen Pfeile für benachbarte Karten.


METAR-TAF: